Time;durP1;ratioP1;P1;durP2;ratioP2;P2;SDS_P1;SDS_P2;PMS_P1;PMS_P2;Temp;Humidity;BMP_temperature;BMP_pressure;BME280_temperature;BME280_humidity;BME280_pressure;Samples;Min_cycle;Max_cycle;Signal;HPM_P1;HPM_P2
2022/10/01 00:01:53;;;;;;;21.45;4.60;;;;;;;;;;4915847;29;20459;-63
2022/10/01 00:04:20;;;;;;;25.00;4.18;;;;;;;;;;4918794;29;20087;-64
2022/10/01 00:06:47;;;;;;;20.58;4.70;;;;;;;;;;4930275;29;20020;-64
2022/10/01 00:09:14;;;;;;;13.93;3.92;;;;;;;;;;4920966;29;20039;-63
2022/10/01 00:11:41;;;;;;;21.20;4.10;;;;;;;;;;4924480;29;20040;-63
2022/10/01 00:14:09;;;;;;;25.15;4.68;;;;;;;;;;4917465;29;20109;-63
2022/10/01 00:16:36;;;;;;;25.05;3.95;;;;;;;;;;4925861;29;20511;-63
2022/10/01 00:19:06;;;;;;;30.45;4.40;;;;;;;;;;4915271;29;20092;-62
2022/10/01 00:21:33;;;;;;;20.15;4.10;;;;;;;;;;4923976;29;20094;-63
2022/10/01 00:24:03;;;;;;;23.13;3.60;;;;;;;;;;4931924;29;20036;-62
2022/10/01 00:26:34;;;;;;;16.38;3.90;;;;;;;;;;4932082;29;20036;-60
2022/10/01 00:29:05;;;;;;;29.90;4.57;;;;;;;;;;4924093;29;20451;-61
2022/10/01 00:31:33;;;;;;;23.40;4.33;;;;;;;;;;4926819;29;20024;-60
2022/10/01 00:34:03;;;;;;;22.77;4.35;;;;;;;;;;4933084;29;20045;-62
2022/10/01 00:36:31;;;;;;;25.30;5.13;;;;;;;;;;4930498;29;20043;-62
2022/10/01 00:39:01;;;;;;;25.20;6.00;;;;;;;;;;4933273;29;20036;-62
2022/10/01 00:41:29;;;;;;;36.75;7.05;;;;;;;;;;4918959;29;20043;-61
2022/10/01 00:43:57;;;;;;;35.83;6.90;;;;;;;;;;4919100;29;20534;-61
2022/10/01 00:46:26;;;;;;;33.70;7.30;;;;;;;;;;4933926;29;20028;-60
2022/10/01 00:48:55;;;;;;;43.20;8.40;;;;;;;;;;4922198;29;20043;-61
2022/10/01 00:51:22;;;;;;;42.25;10.30;;;;;;;;;;4930206;29;20047;-62
2022/10/01 00:53:50;;;;;;;48.80;11.80;;;;;;;;;;4931522;29;20034;-62
2022/10/01 00:56:17;;;;;;;48.80;12.55;;;;;;;;;;4924711;29;20042;-59
2022/10/01 00:58:44;;;;;;;54.42;13.88;;;;;;;;;;4930034;29;20051;-60
2022/10/01 01:01:11;;;;;;;53.70;12.57;;;;;;;;;;4932574;29;20079;-60
2022/10/01 01:03:38;;;;;;;37.70;11.13;;;;;;;;;;4919343;29;20044;-59
2022/10/01 01:06:06;;;;;;;47.47;12.15;;;;;;;;;;4919263;29;20512;-59
2022/10/01 01:08:34;;;;;;;46.70;13.10;;;;;;;;;;4918483;29;20056;-59
2022/10/01 01:11:01;;;;;;;48.28;13.48;;;;;;;;;;4923882;29;20038;-59
2022/10/01 01:13:31;;;;;;;47.67;13.18;;;;;;;;;;4932137;29;20387;-59
2022/10/01 01:15:57;;;;;;;47.20;13.52;;;;;;;;;;4926867;29;20046;-59
2022/10/01 01:18:43;;;;;;;48.15;13.40;;;;;;;;;;4934156;29;20051;-60
2022/10/01 01:21:13;;;;;;;51.05;13.40;;;;;;;;;;4946113;29;20115;-59
2022/10/01 01:23:55;;;;;;;45.05;12.82;;;;;;;;;;4931181;29;20043;-60
2022/10/01 01:26:26;;;;;;;49.78;12.77;;;;;;;;;;4933077;29;20028;-59
2022/10/01 01:28:55;;;;;;;40.13;11.43;;;;;;;;;;4925336;29;20044;-60
2022/10/01 01:31:29;;;;;;;31.70;10.55;;;;;;;;;;4928332;29;20390;-59
2022/10/01 01:33:57;;;;;;;35.60;10.77;;;;;;;;;;4918035;29;20032;-61
2022/10/01 01:36:30;;;;;;;45.38;11.82;;;;;;;;;;4918893;29;20047;-60
2022/10/01 01:39:00;;;;;;;37.25;9.57;;;;;;;;;;4924675;29;20096;-60
2022/10/01 01:41:28;;;;;;;45.42;10.23;;;;;;;;;;4917760;29;20024;-61
2022/10/01 01:43:58;;;;;;;42.22;9.50;;;;;;;;;;4932655;29;20038;-61
2022/10/01 01:46:32;;;;;;;35.15;8.00;;;;;;;;;;4934894;29;20027;-62
2022/10/01 01:49:01;;;;;;;39.58;8.60;;;;;;;;;;4930014;29;20036;-61
2022/10/01 01:51:32;;;;;;;29.58;7.50;;;;;;;;;;4927948;29;20032;-60
2022/10/01 01:53:59;;;;;;;37.40;8.23;;;;;;;;;;4929425;29;20487;-63
2022/10/01 01:56:26;;;;;;;35.35;7.43;;;;;;;;;;4915463;29;20776;-61
2022/10/01 01:58:53;;;;;;;39.22;8.38;;;;;;;;;;4915447;29;20086;-65
2022/10/01 02:01:33;;;;;;;30.70;7.53;;;;;;;;;;4916294;29;20063;-61
2022/10/01 02:04:03;;;;;;;30.85;7.82;;;;;;;;;;4931742;29;20067;-61
2022/10/01 02:06:48;;;;;;;31.95;8.13;;;;;;;;;;4917364;29;20398;-63
2022/10/01 02:09:21;;;;;;;32.90;8.00;;;;;;;;;;4916976;29;20136;-67
2022/10/01 02:11:57;;;;;;;31.38;7.65;;;;;;;;;;4934361;29;20038;-62
2022/10/01 02:14:31;;;;;;;26.08;7.05;;;;;;;;;;4936240;29;20034;-62
2022/10/01 02:17:02;;;;;;;30.23;7.60;;;;;;;;;;4935594;29;20107;-63
2022/10/01 02:19:51;;;;;;;35.92;7.35;;;;;;;;;;4932856;29;20040;-64
2022/10/01 02:22:21;;;;;;;30.67;7.60;;;;;;;;;;4926744;29;20032;-63
2022/10/01 02:24:55;;;;;;;25.27;6.75;;;;;;;;;;4930364;29;20039;-69
2022/10/01 02:27:40;;;;;;;26.25;6.70;;;;;;;;;;4928112;29;20111;-63
2022/10/01 02:30:09;;;;;;;29.35;7.15;;;;;;;;;;4928482;29;20035;-64
2022/10/01 02:32:44;;;;;;;24.58;6.45;;;;;;;;;;4944091;29;20407;-66
2022/10/01 02:35:13;;;;;;;27.40;7.45;;;;;;;;;;4942664;28;20075;-65
2022/10/01 02:37:41;;;;;;;26.13;5.88;;;;;;;;;;4946603;29;20043;-64
2022/10/01 02:40:14;;;;;;;28.85;6.75;;;;;;;;;;4930586;29;20035;-65
2022/10/01 02:42:50;;;;;;;23.38;6.90;;;;;;;;;;4931128;29;20071;-65
2022/10/01 02:45:24;;;;;;;28.88;6.72;;;;;;;;;;4933216;29;20399;-65
2022/10/01 02:47:57;;;;;;;23.10;6.28;;;;;;;;;;4931533;29;20032;-64
2022/10/01 02:50:28;;;;;;;21.23;5.57;;;;;;;;;;4929686;29;20027;-63
2022/10/01 02:53:02;;;;;;;19.50;6.00;;;;;;;;;;4924578;29;20032;-63
2022/10/01 02:55:47;;;;;;;18.15;5.50;;;;;;;;;;4924208;29;20631;-62
2022/10/01 02:58:18;;;;;;;19.00;5.72;;;;;;;;;;4925066;29;20030;-62
2022/10/01 03:00:46;;;;;;;19.25;5.65;;;;;;;;;;4925528;29;20039;-63
2022/10/01 03:03:13;;;;;;;19.25;5.82;;;;;;;;;;4926865;29;20558;-62
2022/10/01 03:05:40;;;;;;;17.95;5.65;;;;;;;;;;4925729;29;20067;-63
2022/10/01 03:08:07;;;;;;;16.38;5.28;;;;;;;;;;4925144;29;20058;-62
2022/10/01 03:10:34;;;;;;;21.23;4.90;;;;;;;;;;4926919;29;20086;-63
2022/10/01 03:13:01;;;;;;;16.65;4.57;;;;;;;;;;4925909;29;20032;-61
2022/10/01 03:15:28;;;;;;;16.75;5.40;;;;;;;;;;4924745;29;20044;-60
2022/10/01 03:17:55;;;;;;;17.38;4.85;;;;;;;;;;4924297;29;20062;-61
2022/10/01 03:20:22;;;;;;;20.45;5.20;;;;;;;;;;4925941;29;20028;-60
2022/10/01 03:22:49;;;;;;;17.88;5.30;;;;;;;;;;4924809;29;20506;-60
2022/10/01 03:25:17;;;;;;;23.35;4.78;;;;;;;;;;4926464;29;20027;-59
2022/10/01 03:27:45;;;;;;;15.23;4.60;;;;;;;;;;4927404;29;20030;-63
2022/10/01 03:30:12;;;;;;;19.45;4.80;;;;;;;;;;4922549;29;20091;-62
2022/10/01 03:32:39;;;;;;;10.90;4.43;;;;;;;;;;4923693;29;20055;-63
2022/10/01 03:35:06;;;;;;;13.95;4.63;;;;;;;;;;4925004;29;20042;-60
2022/10/01 03:37:33;;;;;;;17.17;4.50;;;;;;;;;;4926499;29;20028;-63
2022/10/01 03:40:00;;;;;;;14.75;4.40;;;;;;;;;;4925385;29;20043;-61
2022/10/01 03:42:27;;;;;;;18.05;4.82;;;;;;;;;;4924741;29;20800;-61
2022/10/01 03:44:54;;;;;;;15.00;4.32;;;;;;;;;;4926493;29;20207;-60
2022/10/01 03:47:23;;;;;;;11.52;3.72;;;;;;;;;;4925453;29;20032;-60
2022/10/01 03:49:50;;;;;;;18.65;4.28;;;;;;;;;;4924461;29;20098;-62
2022/10/01 03:52:17;;;;;;;15.50;4.30;;;;;;;;;;4926116;29;20028;-62
2022/10/01 03:54:44;;;;;;;11.20;3.78;;;;;;;;;;4924768;29;20127;-63
2022/10/01 03:57:11;;;;;;;9.90;4.03;;;;;;;;;;4924197;29;20177;-64
2022/10/01 03:59:38;;;;;;;12.45;4.40;;;;;;;;;;4925848;29;20095;-63
2022/10/01 04:02:07;;;;;;;12.80;4.05;;;;;;;;;;4925958;29;20046;-61
2022/10/01 04:04:34;;;;;;;10.23;3.58;;;;;;;;;;4925671;29;20038;-63
2022/10/01 04:07:01;;;;;;;16.20;4.15;;;;;;;;;;4924058;29;20032;-62
2022/10/01 04:09:28;;;;;;;15.20;3.97;;;;;;;;;;4925543;29;20038;-63
2022/10/01 04:11:55;;;;;;;17.67;3.80;;;;;;;;;;4925902;29;20538;-61
2022/10/01 04:14:22;;;;;;;11.75;3.78;;;;;;;;;;4921344;29;20030;-62
2022/10/01 04:16:51;;;;;;;15.82;3.60;;;;;;;;;;4934133;29;20546;-61
2022/10/01 04:19:18;;;;;;;12.70;3.95;;;;;;;;;;4928415;29;20384;-62
2022/10/01 04:21:46;;;;;;;12.90;3.85;;;;;;;;;;4928837;29;20103;-60
2022/10/01 04:24:13;;;;;;;11.82;3.65;;;;;;;;;;4926121;29;20040;-62
2022/10/01 04:26:40;;;;;;;9.98;3.30;;;;;;;;;;4918991;29;20071;-63
2022/10/01 04:29:07;;;;;;;8.63;3.30;;;;;;;;;;4919043;29;20057;-63
2022/10/01 04:31:34;;;;;;;13.18;3.33;;;;;;;;;;4918901;29;20079;-62
2022/10/01 04:34:01;;;;;;;12.25;3.45;;;;;;;;;;4918999;29;20071;-61
2022/10/01 04:36:28;;;;;;;11.02;3.55;;;;;;;;;;4939748;29;20039;-63
2022/10/01 04:38:56;;;;;;;13.05;3.60;;;;;;;;;;4918774;29;20039;-61
2022/10/01 04:41:24;;;;;;;10.05;3.60;;;;;;;;;;4920375;29;20028;-63
2022/10/01 04:43:51;;;;;;;9.90;3.25;;;;;;;;;;4922834;29;20040;-61
2022/10/01 04:46:18;;;;;;;18.00;3.13;;;;;;;;;;4916454;29;20024;-62
2022/10/01 04:48:47;;;;;;;12.05;3.53;;;;;;;;;;4922465;29;20492;-63
2022/10/01 04:51:14;;;;;;;14.10;3.17;;;;;;;;;;4932555;29;20035;-62
2022/10/01 04:53:42;;;;;;;9.82;3.15;;;;;;;;;;4929390;29;20091;-62
2022/10/01 04:56:09;;;;;;;14.73;3.40;;;;;;;;;;4923810;29;20119;-62
2022/10/01 04:58:36;;;;;;;8.40;3.10;;;;;;;;;;4925307;29;20043;-61
2022/10/01 05:01:03;;;;;;;10.45;2.97;;;;;;;;;;4925182;29;20040;-61
2022/10/01 05:03:30;;;;;;;12.65;3.53;;;;;;;;;;4921444;29;20040;-62
2022/10/01 05:05:57;;;;;;;9.18;3.10;;;;;;;;;;4928720;29;20032;-62
2022/10/01 05:08:24;;;;;;;16.73;3.25;;;;;;;;;;4925195;29;20031;-62
2022/10/01 05:10:51;;;;;;;8.85;3.05;;;;;;;;;;4927858;29;20110;-61
2022/10/01 05:13:18;;;;;;;7.25;2.70;;;;;;;;;;4928037;29;20040;-62
2022/10/01 05:15:48;;;;;;;10.65;3.05;;;;;;;;;;4927349;29;20038;-62
2022/10/01 05:18:15;;;;;;;7.35;2.72;;;;;;;;;;4928959;29;20035;-62
2022/10/01 05:20:42;;;;;;;6.78;2.40;;;;;;;;;;4928027;29;20513;-62
2022/10/01 05:23:09;;;;;;;7.22;2.78;;;;;;;;;;4927013;29;20114;-61
2022/10/01 05:25:36;;;;;;;6.90;2.53;;;;;;;;;;4926471;29;20031;-61
2022/10/01 05:28:04;;;;;;;6.22;2.53;;;;;;;;;;4927510;29;20070;-61
2022/10/01 05:30:31;;;;;;;7.78;2.58;;;;;;;;;;4920825;29;20067;-62
2022/10/01 05:32:59;;;;;;;10.70;2.97;;;;;;;;;;4918181;29;20056;-61
2022/10/01 05:35:26;;;;;;;10.50;2.80;;;;;;;;;;4918588;29;20062;-61
2022/10/01 05:37:54;;;;;;;9.75;2.60;;;;;;;;;;4918703;29;20032;-61
2022/10/01 05:40:23;;;;;;;6.60;2.65;;;;;;;;;;4918827;29;20119;-62
2022/10/01 05:42:50;;;;;;;7.28;2.47;;;;;;;;;;4918747;29;20103;-62
2022/10/01 05:45:19;;;;;;;5.20;2.20;;;;;;;;;;4918847;29;20083;-61
2022/10/01 05:47:47;;;;;;;9.80;2.47;;;;;;;;;;4918294;29;20115;-62
2022/10/01 05:50:14;;;;;;;6.55;2.42;;;;;;;;;;4918639;29;20032;-61
2022/10/01 05:52:52;;;;;;;5.07;2.20;;;;;;;;;;4918596;29;20028;-62
2022/10/01 05:55:19;;;;;;;7.78;2.40;;;;;;;;;;4918467;29;20039;-62
2022/10/01 05:57:53;;;;;;;5.88;2.75;;;;;;;;;;4918412;29;20055;-62
2022/10/01 06:00:21;;;;;;;7.50;2.70;;;;;;;;;;4918407;29;20104;-61
2022/10/01 06:02:51;;;;;;;5.20;2.30;;;;;;;;;;4932432;29;20043;-62
2022/10/01 06:05:19;;;;;;;4.47;2.00;;;;;;;;;;4937370;29;20028;-61
2022/10/01 06:07:46;;;;;;;7.15;2.70;;;;;;;;;;4937169;29;20036;-61
2022/10/01 06:10:13;;;;;;;4.85;2.03;;;;;;;;;;4937053;29;20087;-61
2022/10/01 06:12:42;;;;;;;5.43;2.00;;;;;;;;;;4937275;29;20494;-62
2022/10/01 06:15:09;;;;;;;5.95;2.13;;;;;;;;;;4937125;29;20032;-61
2022/10/01 06:17:42;;;;;;;4.28;2.00;;;;;;;;;;4936444;29;20035;-62
2022/10/01 06:20:11;;;;;;;4.75;2.28;;;;;;;;;;4936894;29;20398;-61
2022/10/01 06:22:39;;;;;;;5.32;2.00;;;;;;;;;;4935772;29;20031;-61
2022/10/01 06:25:07;;;;;;;7.97;2.20;;;;;;;;;;4936961;29;20044;-62
2022/10/01 06:27:34;;;;;;;5.70;2.15;;;;;;;;;;4936883;29;20028;-62
2022/10/01 06:30:01;;;;;;;8.80;2.25;;;;;;;;;;4936911;29;20023;-61
2022/10/01 06:32:28;;;;;;;5.28;1.90;;;;;;;;;;4936447;29;20055;-62
2022/10/01 06:34:55;;;;;;;6.65;2.33;;;;;;;;;;4936693;29;20048;-62
2022/10/01 06:37:22;;;;;;;4.20;1.90;;;;;;;;;;4936710;29;20490;-61
2022/10/01 06:39:49;;;;;;;4.97;2.17;;;;;;;;;;4936704;29;20068;-61
2022/10/01 06:42:16;;;;;;;5.57;1.85;;;;;;;;;;4936770;29;20039;-62
2022/10/01 06:44:43;;;;;;;6.25;2.10;;;;;;;;;;4936493;29;20474;-61
2022/10/01 06:47:10;;;;;;;5.97;2.30;;;;;;;;;;4936494;29;20094;-61
2022/10/01 06:49:37;;;;;;;4.93;2.00;;;;;;;;;;4935358;29;20034;-62
2022/10/01 06:54:48;;;;;;;2.72;1.65;;;;;;;;;;4936655;29;20546;-62
2022/10/01 06:57:15;;;;;;;7.03;2.10;;;;;;;;;;4936336;29;20114;-62
2022/10/01 06:59:42;;;;;;;4.95;1.85;;;;;;;;;;4936426;29;20099;-61
2022/10/01 07:02:20;;;;;;;6.20;2.10;;;;;;;;;;4936421;29;20060;-62
2022/10/01 07:04:47;;;;;;;5.90;2.00;;;;;;;;;;4936295;29;20024;-62
2022/10/01 07:07:14;;;;;;;4.43;1.90;;;;;;;;;;4936007;29;20038;-62
2022/10/01 07:09:41;;;;;;;7.22;1.90;;;;;;;;;;4936162;29;20466;-62
2022/10/01 07:12:08;;;;;;;3.92;2.05;;;;;;;;;;4936157;29;20032;-61
2022/10/01 07:14:35;;;;;;;4.68;2.03;;;;;;;;;;4936124;29;20379;-62
2022/10/01 07:17:02;;;;;;;4.88;1.88;;;;;;;;;;4935968;29;20042;-62
2022/10/01 07:19:30;;;;;;;5.85;1.77;;;;;;;;;;4936119;29;20032;-62
2022/10/01 07:21:57;;;;;;;3.55;1.85;;;;;;;;;;4935742;29;20036;-62
2022/10/01 07:24:24;;;;;;;4.35;1.58;;;;;;;;;;4935967;29;20027;-62
2022/10/01 07:26:54;;;;;;;3.60;1.67;;;;;;;;;;4935533;29;20490;-61
2022/10/01 07:29:22;;;;;;;4.03;1.88;;;;;;;;;;4933894;29;20051;-63
2022/10/01 07:31:50;;;;;;;2.97;1.52;;;;;;;;;;4933581;29;20062;-62
2022/10/01 07:34:17;;;;;;;3.97;1.83;;;;;;;;;;4935580;29;20086;-62
2022/10/01 07:36:44;;;;;;;2.65;1.42;;;;;;;;;;4935679;29;20051;-62
2022/10/01 07:39:12;;;;;;;4.28;1.83;;;;;;;;;;4935801;29;20028;-62
2022/10/01 07:41:39;;;;;;;3.58;1.33;;;;;;;;;;4935758;29;20051;-62
2022/10/01 07:44:06;;;;;;;3.78;1.70;;;;;;;;;;4935544;29;20035;-62
2022/10/01 07:46:33;;;;;;;5.03;1.58;;;;;;;;;;4935560;29;20042;-62
2022/10/01 07:49:00;;;;;;;5.32;1.90;;;;;;;;;;4934333;29;20063;-62
2022/10/01 07:51:27;;;;;;;5.35;1.90;;;;;;;;;;4935437;29;20083;-62
2022/10/01 07:53:54;;;;;;;5.32;1.65;;;;;;;;;;4935578;29;20024;-63
2022/10/01 07:56:22;;;;;;;5.00;2.00;;;;;;;;;;4935388;29;20114;-62
2022/10/01 07:58:50;;;;;;;4.60;1.80;;;;;;;;;;4935557;29;20050;-62
2022/10/01 08:01:17;;;;;;;4.40;1.88;;;;;;;;;;4935515;29;20043;-62
2022/10/01 08:03:44;;;;;;;3.30;1.38;;;;;;;;;;4935507;29;20035;-62
2022/10/01 08:06:12;;;;;;;4.30;1.52;;;;;;;;;;4935189;29;20521;-64
2022/10/01 08:08:39;;;;;;;3.83;1.50;;;;;;;;;;4935537;29;20079;-62
2022/10/01 08:11:08;;;;;;;3.90;1.83;;;;;;;;;;4935427;29;20051;-62
2022/10/01 08:13:35;;;;;;;2.42;1.48;;;;;;;;;;4935242;29;20036;-62
2022/10/01 08:16:02;;;;;;;4.93;1.38;;;;;;;;;;4935229;29;20071;-62
2022/10/01 08:18:29;;;;;;;2.97;1.52;;;;;;;;;;4935347;29;20048;-62
2022/10/01 08:20:57;;;;;;;4.90;1.33;;;;;;;;;;4935396;29;20032;-62
2022/10/01 08:23:24;;;;;;;2.90;1.30;;;;;;;;;;4935319;29;20019;-62
2022/10/01 08:25:51;;;;;;;5.45;1.67;;;;;;;;;;4935203;29;20091;-62
2022/10/01 08:28:18;;;;;;;5.20;2.10;;;;;;;;;;4935219;29;20031;-62
2022/10/01 08:30:45;;;;;;;5.78;1.70;;;;;;;;;;4935308;29;20031;-62
2022/10/01 08:33:13;;;;;;;3.15;1.45;;;;;;;;;;4935325;29;20074;-62
2022/10/01 08:35:40;;;;;;;3.60;1.63;;;;;;;;;;4934961;29;20131;-62
2022/10/01 08:38:08;;;;;;;3.33;1.35;;;;;;;;;;4935086;29;20039;-62
2022/10/01 08:40:41;;;;;;;2.70;1.40;;;;;;;;;;4936593;29;20039;-62
2022/10/01 08:43:13;;;;;;;2.42;1.52;;;;;;;;;;4938902;29;20159;-62
2022/10/01 08:45:46;;;;;;;2.75;1.42;;;;;;;;;;4938658;29;20560;-62
2022/10/01 08:48:16;;;;;;;2.42;1.40;;;;;;;;;;4938771;29;20030;-62
2022/10/01 08:50:46;;;;;;;3.30;1.38;;;;;;;;;;4937562;29;20032;-62
2022/10/01 08:53:18;;;;;;;3.30;1.50;;;;;;;;;;4938782;29;20032;-62
2022/10/01 08:55:47;;;;;;;6.20;1.90;;;;;;;;;;4938644;29;20042;-62
2022/10/01 08:58:18;;;;;;;2.95;1.42;;;;;;;;;;4938395;29;20052;-62
2022/10/01 09:00:45;;;;;;;3.20;1.58;;;;;;;;;;4938604;29;20099;-62
2022/10/01 09:03:13;;;;;;;2.28;1.25;;;;;;;;;;4938595;29;20110;-62
2022/10/01 09:05:40;;;;;;;3.33;1.55;;;;;;;;;;4938532;29;20229;-62
2022/10/01 09:08:42;;;;;;;3.63;1.60;;;;;;;;;;4928190;29;20028;-62
2022/10/01 09:11:15;;;;;;;3.72;1.40;;;;;;;;;;4919370;29;20040;-62
2022/10/01 09:13:59;;;;;;;3.03;1.40;;;;;;;;;;4919396;29;20047;-62
2022/10/01 09:16:31;;;;;;;2.60;1.40;;;;;;;;;;4919133;29;20029;-62
2022/10/01 09:19:04;;;;;;;2.42;1.10;;;;;;;;;;4919343;29;20047;-63
2022/10/01 09:21:49;;;;;;;3.40;1.30;;;;;;;;;;4919086;29;20031;-62
2022/10/01 09:24:23;;;;;;;3.17;1.30;;;;;;;;;;4919171;29;20486;-62
2022/10/01 09:26:51;;;;;;;4.25;1.48;;;;;;;;;;4919011;29;20040;-62
2022/10/01 09:29:27;;;;;;;3.33;1.00;;;;;;;;;;4919157;29;20492;-62
2022/10/01 09:31:55;;;;;;;2.47;1.20;;;;;;;;;;4918694;29;20541;-62
2022/10/01 09:34:32;;;;;;;3.20;1.50;;;;;;;;;;4918929;29;20508;-62
2022/10/01 09:37:04;;;;;;;2.72;1.23;;;;;;;;;;4918798;29;20058;-63
2022/10/01 09:40:03;;;;;;;3.47;1.42;;;;;;;;;;4919267;29;20040;-62
2022/10/01 09:42:31;;;;;;;2.60;1.40;;;;;;;;;;4917597;29;20529;-62
2022/10/01 09:44:58;;;;;;;3.03;1.40;;;;;;;;;;4918728;29;20039;-62
2022/10/01 09:47:25;;;;;;;5.22;1.88;;;;;;;;;;4918736;29;20032;-62
2022/10/01 09:49:53;;;;;;;3.28;1.25;;;;;;;;;;4918731;29;20024;-62
2022/10/01 09:52:25;;;;;;;4.03;1.38;;;;;;;;;;4917668;29;20164;-62
2022/10/01 09:54:52;;;;;;;3.67;1.20;;;;;;;;;;4918617;29;20098;-62
2022/10/01 09:57:34;;;;;;;4.40;1.40;;;;;;;;;;4918339;29;20044;-62
2022/10/01 10:00:06;;;;;;;5.60;1.40;;;;;;;;;;4918852;29;20123;-62
2022/10/01 10:02:37;;;;;;;3.15;1.20;;;;;;;;;;4918806;29;20042;-62
2022/10/01 10:05:06;;;;;;;5.38;1.38;;;;;;;;;;4918544;29;20039;-62
2022/10/01 10:07:34;;;;;;;1.95;0.90;;;;;;;;;;4918311;29;20391;-62
2022/10/01 10:10:29;;;;;;;3.70;1.58;;;;;;;;;;4918322;29;20040;-63
2022/10/01 10:12:59;;;;;;;4.15;1.60;;;;;;;;;;4917533;29;20092;-62
2022/10/01 10:15:26;;;;;;;4.35;1.20;;;;;;;;;;4918231;29;20032;-62
2022/10/01 10:17:54;;;;;;;2.72;1.10;;;;;;;;;;4918098;29;20031;-62
2022/10/01 10:20:36;;;;;;;3.40;1.13;;;;;;;;;;4918216;29;20036;-62
2022/10/01 10:23:20;;;;;;;2.55;1.38;;;;;;;;;;4917966;29;20036;-63
2022/10/01 10:26:01;;;;;;;2.75;1.23;;;;;;;;;;4918169;29;20032;-62
2022/10/01 10:28:30;;;;;;;4.43;1.40;;;;;;;;;;4917949;29;20372;-62
2022/10/01 10:30:57;;;;;;;4.35;1.48;;;;;;;;;;4918027;29;20494;-62
2022/10/01 10:33:28;;;;;;;4.65;1.35;;;;;;;;;;4917863;29;20072;-62
2022/10/01 10:36:03;;;;;;;2.60;1.00;;;;;;;;;;4917885;29;20070;-62
2022/10/01 10:38:32;;;;;;;4.50;1.45;;;;;;;;;;4917829;29;20032;-62
2022/10/01 10:41:00;;;;;;;3.40;1.20;;;;;;;;;;4917879;29;20029;-62
2022/10/01 10:43:29;;;;;;;4.20;1.45;;;;;;;;;;4917804;29;20050;-62
2022/10/01 10:45:56;;;;;;;4.28;1.38;;;;;;;;;;4917738;29;20043;-62
2022/10/01 10:48:30;;;;;;;4.13;1.60;;;;;;;;;;4924754;29;20024;-62
2022/10/01 10:51:01;;;;;;;2.05;1.00;;;;;;;;;;4936770;29;20031;-62
2022/10/01 10:53:32;;;;;;;4.38;1.48;;;;;;;;;;4936666;29;20490;-62
2022/10/01 10:56:00;;;;;;;3.47;1.58;;;;;;;;;;4936470;29;20046;-62
2022/10/01 10:58:41;;;;;;;3.85;1.70;;;;;;;;;;4936508;29;20039;-62
2022/10/01 11:01:10;;;;;;;3.78;1.38;;;;;;;;;;4936490;29;20036;-62
2022/10/01 11:03:38;;;;;;;3.88;1.40;;;;;;;;;;4936349;29;20426;-62
2022/10/01 11:06:13;;;;;;;2.50;1.33;;;;;;;;;;4936359;29;20038;-62
2022/10/01 11:08:40;;;;;;;3.10;1.05;;;;;;;;;;4936386;29;20036;-62
2022/10/01 11:11:39;;;;;;;2.03;1.15;;;;;;;;;;4936320;29;20035;-62
2022/10/01 11:14:15;;;;;;;2.83;1.15;;;;;;;;;;4924791;29;20095;-62
2022/10/01 11:17:04;;;;;;;3.50;1.40;;;;;;;;;;4934816;29;20383;-62
2022/10/01 11:19:40;;;;;;;3.95;1.20;;;;;;;;;;4936219;29;20046;-62
2022/10/01 11:22:33;;;;;;;4.47;1.73;;;;;;;;;;4936160;29;20034;-62
2022/10/01 11:25:06;;;;;;;2.28;1.17;;;;;;;;;;4936147;29;20533;-62
2022/10/01 11:27:36;;;;;;;3.17;1.17;;;;;;;;;;4935892;29;20412;-62
2022/10/01 11:30:03;;;;;;;2.83;1.42;;;;;;;;;;4934752;29;20446;-62
2022/10/01 11:32:37;;;;;;;2.65;1.10;;;;;;;;;;4935754;29;20140;-62
2022/10/01 11:35:17;;;;;;;2.40;0.93;;;;;;;;;;4935875;29;20471;-62
2022/10/01 11:38:00;;;;;;;2.88;1.20;;;;;;;;;;4935858;29;20023;-62
2022/10/01 11:40:32;;;;;;;3.78;1.10;;;;;;;;;;4935812;29;20103;-62
2022/10/01 11:43:05;;;;;;;2.97;1.30;;;;;;;;;;4935872;29;20020;-62
2022/10/01 11:45:35;;;;;;;3.70;0.90;;;;;;;;;;4935814;29;20034;-62
2022/10/01 11:48:06;;;;;;;3.90;1.40;;;;;;;;;;4935749;29;20066;-62
2022/10/01 11:50:48;;;;;;;2.63;1.00;;;;;;;;;;4935781;29;20027;-62
2022/10/01 11:53:18;;;;;;;3.43;1.10;;;;;;;;;;4936000;29;20614;-62
2022/10/01 11:58:56;;;;;;;2.08;1.17;;;;;;;;;;4934139;29;20143;-61
2022/10/01 12:01:27;;;;;;;3.13;1.30;;;;;;;;;;4929738;29;20035;-62
2022/10/01 12:03:54;;;;;;;1.95;1.27;;;;;;;;;;4919866;29;20036;-62
2022/10/01 12:06:32;;;;;;;2.17;1.15;;;;;;;;;;4916691;29;20068;-62
2022/10/01 12:09:07;;;;;;;4.25;1.55;;;;;;;;;;4918940;29;20032;-62
2022/10/01 12:11:42;;;;;;;2.63;1.50;;;;;;;;;;4916818;29;20031;-61
2022/10/01 12:14:16;;;;;;;5.35;1.88;;;;;;;;;;4916453;29;20028;-61
2022/10/01 12:16:50;;;;;;;4.25;1.42;;;;;;;;;;4924912;29;20495;-62
2022/10/01 12:19:25;;;;;;;2.75;1.42;;;;;;;;;;4927505;29;20031;-62
2022/10/01 12:22:12;;;;;;;3.90;1.60;;;;;;;;;;4929721;29;20031;-62
2022/10/01 12:24:41;;;;;;;5.65;1.98;;;;;;;;;;4923800;29;20043;-62
2022/10/01 12:27:20;;;;;;;4.82;1.50;;;;;;;;;;4929284;29;20032;-62
2022/10/01 12:29:47;;;;;;;6.65;1.77;;;;;;;;;;4936853;29;20039;-61
2022/10/01 12:32:20;;;;;;;4.10;1.70;;;;;;;;;;4936458;29;20061;-62
2022/10/01 12:34:47;;;;;;;3.75;1.58;;;;;;;;;;4938948;29;20525;-61
2022/10/01 12:37:20;;;;;;;5.90;1.80;;;;;;;;;;4938508;29;20032;-61
2022/10/01 12:40:05;;;;;;;6.78;1.90;;;;;;;;;;4938832;29;20393;-61
2022/10/01 12:42:53;;;;;;;5.80;1.60;;;;;;;;;;4929560;29;20136;-62
2022/10/01 12:45:43;;;;;;;9.10;1.85;;;;;;;;;;4921951;29;20148;-62
2022/10/01 12:48:16;;;;;;;5.68;2.05;;;;;;;;;;4926916;29;20130;-62
2022/10/01 12:50:48;;;;;;;9.90;2.25;;;;;;;;;;4936547;29;20118;-62
2022/10/01 12:53:24;;;;;;;8.07;2.33;;;;;;;;;;4931997;29;20056;-62
2022/10/01 12:56:04;;;;;;;58.50;5.22;;;;;;;;;;4928734;29;20040;-62
2022/10/01 12:58:40;;;;;;;24.48;2.92;;;;;;;;;;4935993;29;20031;-64
2022/10/01 13:01:27;;;;;;;19.42;2.95;;;;;;;;;;4931062;29;20036;-62
2022/10/01 13:04:03;;;;;;;17.08;2.50;;;;;;;;;;4926511;29;20589;-61
2022/10/01 13:06:53;;;;;;;16.85;2.90;;;;;;;;;;4918699;29;20040;-62
2022/10/01 13:09:38;;;;;;;14.63;2.63;;;;;;;;;;4932181;29;20050;-63
2022/10/01 13:12:22;;;;;;;10.77;2.17;;;;;;;;;;4937839;29;20028;-62
2022/10/01 13:14:51;;;;;;;13.00;2.10;;;;;;;;;;4933382;29;20031;-62
2022/10/01 13:17:32;;;;;;;9.85;2.10;;;;;;;;;;4931425;29;20066;-62
2022/10/01 13:20:23;;;;;;;11.88;2.58;;;;;;;;;;4935200;29;20048;-62
2022/10/01 13:23:11;;;;;;;16.73;2.67;;;;;;;;;;4938224;29;20038;-62
2022/10/01 13:25:56;;;;;;;11.35;2.45;;;;;;;;;;4934821;29;20047;-62
2022/10/01 13:28:25;;;;;;;14.85;2.75;;;;;;;;;;4937303;29;20028;-63
2022/10/01 13:31:10;;;;;;;13.75;2.45;;;;;;;;;;4932194;29;20043;-63
2022/10/01 13:33:37;;;;;;;13.25;2.63;;;;;;;;;;4937080;29;20047;-62
2022/10/01 13:36:05;;;;;;;15.50;2.53;;;;;;;;;;4937126;29;20060;-63
2022/10/01 13:38:38;;;;;;;9.30;2.50;;;;;;;;;;4937880;29;20031;-62
2022/10/01 13:41:07;;;;;;;12.82;2.55;;;;;;;;;;4937955;29;20034;-63
2022/10/01 13:43:35;;;;;;;16.00;2.58;;;;;;;;;;4937841;29;20031;-62
2022/10/01 13:46:10;;;;;;;10.82;2.28;;;;;;;;;;4937431;29;20060;-62
2022/10/01 13:48:45;;;;;;;11.88;2.33;;;;;;;;;;4937786;29;20023;-63
2022/10/01 13:51:14;;;;;;;8.55;2.53;;;;;;;;;;4937566;29;20035;-62
2022/10/01 13:53:46;;;;;;;17.52;3.10;;;;;;;;;;4937577;29;20126;-63
2022/10/01 13:56:15;;;;;;;14.52;2.40;;;;;;;;;;4937175;29;20191;-63
2022/10/01 13:58:43;;;;;;;12.18;2.67;;;;;;;;;;4937463;29;20028;-63
2022/10/01 14:01:17;;;;;;;7.60;2.00;;;;;;;;;;4937491;29;20107;-63
2022/10/01 14:03:53;;;;;;;15.50;2.65;;;;;;;;;;4926182;29;20044;-63
2022/10/01 14:06:41;;;;;;;9.43;2.28;;;;;;;;;;4942748;29;20031;-62
2022/10/01 14:09:14;;;;;;;13.68;2.70;;;;;;;;;;4956759;28;20031;-63
2022/10/01 14:17:31;;;;;;;12.27;2.38;;;;;;;;;;4917845;29;20063;-62
2022/10/01 14:19:59;;;;;;;11.80;2.67;;;;;;;;;;4918056;29;20024;-62
2022/10/01 14:22:32;;;;;;;8.05;2.40;;;;;;;;;;4918024;29;20148;-62
2022/10/01 14:25:14;;;;;;;13.23;2.72;;;;;;;;;;4928415;29;20478;-62
2022/10/01 14:27:52;;;;;;;12.90;2.40;;;;;;;;;;4936747;29;20046;-63
2022/10/01 14:30:32;;;;;;;15.50;2.67;;;;;;;;;;4936602;29;20043;-63
2022/10/01 14:33:17;;;;;;;13.02;2.53;;;;;;;;;;4944450;29;20058;-62
2022/10/01 14:35:44;;;;;;;7.35;2.22;;;;;;;;;;4936250;29;20410;-62
2022/10/01 14:38:13;;;;;;;13.20;2.67;;;;;;;;;;4936087;29;20039;-63
2022/10/01 14:40:45;;;;;;;14.43;2.67;;;;;;;;;;4936621;29;20511;-62
2022/10/01 14:43:20;;;;;;;11.18;2.50;;;;;;;;;;4936654;29;20039;-62
2022/10/01 14:46:05;;;;;;;7.43;2.03;;;;;;;;;;4935233;29;20035;-64
2022/10/01 14:48:33;;;;;;;15.60;2.70;;;;;;;;;;4925038;29;20036;-62
2022/10/01 14:51:02;;;;;;;10.57;2.92;;;;;;;;;;4917534;29;20118;-62
2022/10/01 14:53:30;;;;;;;11.85;2.67;;;;;;;;;;4917458;29;20108;-62
2022/10/01 14:55:59;;;;;;;15.63;3.10;;;;;;;;;;4917464;29;20036;-62
2022/10/01 14:58:29;;;;;;;6.57;2.15;;;;;;;;;;4917209;29;20027;-62
2022/10/01 15:00:56;;;;;;;10.63;2.30;;;;;;;;;;4932526;29;20582;-62
2022/10/01 15:03:24;;;;;;;8.98;2.20;;;;;;;;;;4936357;29;20394;-62
2022/10/01 15:05:51;;;;;;;10.30;2.25;;;;;;;;;;4936199;29;20054;-62
2022/10/01 15:08:23;;;;;;;11.80;2.35;;;;;;;;;;4936379;29;20043;-62
2022/10/01 15:11:04;;;;;;;6.93;1.95;;;;;;;;;;4936261;29;20024;-62